Terminal Aerodrome Forecast
Issued by NWS

Home | Current Version | Previous Version | Graphics & Text | Print | Product List | Glossary On
Versions: 1 2 3 4 5 6 7 8 9 10 11 12 13 14 15 16 17 18 19 20 21 22 23
000
FTUS43 KDLH 220800 AAC
TAFHYR
TAF AMD
KHYR 220808Z 2208/2306 00000KT 4SM BR SCT002
      TEMPO 2209/2212 3/4SM BR BKN002
     FM221300 26002KT P6SM SKC
     FM221800 26007KT P6SM FEW025
     FM230000 VRB02KT P6SM SKC=

USA.gov is the U.S. government's official web portal to all federal, state and local government web resources and services.